sensor_id;sensor_type;location;lat;lon;timestamp;P1;durP1;ratioP1;P2;durP2;ratioP2
65636;SDS011;52327;42.622;23.316;2022-07-19T00:00:18;7.93;;;3.08;;
65636;SDS011;52327;42.622;23.316;2022-07-19T00:02:45;3.40;;;2.85;;
65636;SDS011;52327;42.622;23.316;2022-07-19T00:05:11;3.40;;;3.10;;
65636;SDS011;52327;42.622;23.316;2022-07-19T00:07:37;4.65;;;3.63;;
65636;SDS011;52327;42.622;23.316;2022-07-19T00:10:04;4.72;;;4.03;;
65636;SDS011;52327;42.622;23.316;2022-07-19T00:12:31;5.10;;;3.83;;
65636;SDS011;52327;42.622;23.316;2022-07-19T00:14:56;5.88;;;4.15;;
65636;SDS011;52327;42.622;23.316;2022-07-19T00:17:22;3.97;;;3.58;;
65636;SDS011;52327;42.622;23.316;2022-07-19T00:19:47;4.82;;;3.88;;
65636;SDS011;52327;42.622;23.316;2022-07-19T00:22:13;4.50;;;3.92;;
65636;SDS011;52327;42.622;23.316;2022-07-19T00:24:38;8.68;;;4.60;;
65636;SDS011;52327;42.622;23.316;2022-07-19T00:27:04;4.95;;;4.22;;
65636;SDS011;52327;42.622;23.316;2022-07-19T00:29:29;4.47;;;4.07;;
65636;SDS011;52327;42.622;23.316;2022-07-19T00:31:55;5.95;;;4.85;;
65636;SDS011;52327;42.622;23.316;2022-07-19T00:34:20;7.57;;;5.72;;
65636;SDS011;52327;42.622;23.316;2022-07-19T00:36:45;5.55;;;4.90;;
65636;SDS011;52327;42.622;23.316;2022-07-19T00:39:11;5.22;;;3.90;;
65636;SDS011;52327;42.622;23.316;2022-07-19T00:41:40;4.20;;;3.80;;
65636;SDS011;52327;42.622;23.316;2022-07-19T00:44:07;5.25;;;4.18;;
65636;SDS011;52327;42.622;23.316;2022-07-19T00:46:32;4.10;;;3.70;;
65636;SDS011;52327;42.622;23.316;2022-07-19T00:48:58;4.38;;;3.58;;
65636;SDS011;52327;42.622;23.316;2022-07-19T00:51:23;5.20;;;3.70;;
65636;SDS011;52327;42.622;23.316;2022-07-19T00:53:49;3.72;;;3.20;;
65636;SDS011;52327;42.622;23.316;2022-07-19T00:56:15;4.38;;;3.78;;
65636;SDS011;52327;42.622;23.316;2022-07-19T00:58:42;3.97;;;3.50;;
65636;SDS011;52327;42.622;23.316;2022-07-19T01:01:08;5.32;;;3.40;;
65636;SDS011;52327;42.622;23.316;2022-07-19T01:03:35;4.07;;;2.90;;
65636;SDS011;52327;42.622;23.316;2022-07-19T01:06:02;5.50;;;3.35;;
65636;SDS011;52327;42.622;23.316;2022-07-19T01:08:28;3.13;;;2.83;;
65636;SDS011;52327;42.622;23.316;2022-07-19T01:10:53;5.00;;;3.45;;
65636;SDS011;52327;42.622;23.316;2022-07-19T01:13:19;4.45;;;3.00;;
65636;SDS011;52327;42.622;23.316;2022-07-19T01:15:44;4.35;;;3.25;;
65636;SDS011;52327;42.622;23.316;2022-07-19T01:18:10;3.50;;;2.95;;
65636;SDS011;52327;42.622;23.316;2022-07-19T01:20:36;5.22;;;3.70;;
65636;SDS011;52327;42.622;23.316;2022-07-19T01:23:02;3.88;;;3.35;;
65636;SDS011;52327;42.622;23.316;2022-07-19T01:25:29;5.38;;;3.15;;
65636;SDS011;52327;42.622;23.316;2022-07-19T01:27:57;4.82;;;3.03;;
65636;SDS011;52327;42.622;23.316;2022-07-19T01:30:23;6.78;;;3.40;;
65636;SDS011;52327;42.622;23.316;2022-07-19T01:32:50;5.82;;;3.22;;
65636;SDS011;52327;42.622;23.316;2022-07-19T01:35:16;4.40;;;3.00;;
65636;SDS011;52327;42.622;23.316;2022-07-19T01:37:42;4.38;;;3.03;;
65636;SDS011;52327;42.622;23.316;2022-07-19T01:40:09;3.47;;;3.17;;
65636;SDS011;52327;42.622;23.316;2022-07-19T01:42:36;3.88;;;3.30;;
65636;SDS011;52327;42.622;23.316;2022-07-19T01:45:03;3.33;;;3.03;;
65636;SDS011;52327;42.622;23.316;2022-07-19T01:47:29;4.88;;;3.35;;
65636;SDS011;52327;42.622;23.316;2022-07-19T01:49:55;6.15;;;3.17;;
65636;SDS011;52327;42.622;23.316;2022-07-19T01:52:20;3.83;;;2.97;;
65636;SDS011;52327;42.622;23.316;2022-07-19T01:54:46;7.32;;;3.40;;
65636;SDS011;52327;42.622;23.316;2022-07-19T01:57:11;3.95;;;3.30;;
65636;SDS011;52327;42.622;23.316;2022-07-19T01:59:37;5.53;;;3.40;;
65636;SDS011;52327;42.622;23.316;2022-07-19T02:02:02;4.18;;;3.03;;
65636;SDS011;52327;42.622;23.316;2022-07-19T02:04:28;5.03;;;3.50;;
65636;SDS011;52327;42.622;23.316;2022-07-19T02:06:54;4.25;;;3.38;;
65636;SDS011;52327;42.622;23.316;2022-07-19T02:09:20;4.45;;;3.30;;
65636;SDS011;52327;42.622;23.316;2022-07-19T02:11:45;4.35;;;3.50;;
65636;SDS011;52327;42.622;23.316;2022-07-19T02:14:10;4.15;;;2.78;;
65636;SDS011;52327;42.622;23.316;2022-07-19T02:16:36;4.15;;;2.97;;
65636;SDS011;52327;42.622;23.316;2022-07-19T02:19:03;3.67;;;3.03;;
65636;SDS011;52327;42.622;23.316;2022-07-19T02:21:29;3.90;;;2.90;;
65636;SDS011;52327;42.622;23.316;2022-07-19T02:23:55;5.75;;;3.70;;
65636;SDS011;52327;42.622;23.316;2022-07-19T02:26:20;8.75;;;3.60;;
65636;SDS011;52327;42.622;23.316;2022-07-19T02:28:46;7.03;;;3.63;;
65636;SDS011;52327;42.622;23.316;2022-07-19T02:31:11;4.20;;;3.60;;
65636;SDS011;52327;42.622;23.316;2022-07-19T02:33:37;4.93;;;3.70;;
65636;SDS011;52327;42.622;23.316;2022-07-19T02:36:03;7.53;;;4.20;;
65636;SDS011;52327;42.622;23.316;2022-07-19T02:38:29;4.93;;;4.43;;
65636;SDS011;52327;42.622;23.316;2022-07-19T02:40:55;3.90;;;3.17;;
65636;SDS011;52327;42.622;23.316;2022-07-19T02:43:20;4.47;;;2.33;;
65636;SDS011;52327;42.622;23.316;2022-07-19T02:45:46;3.35;;;2.35;;
65636;SDS011;52327;42.622;23.316;2022-07-19T02:48:11;2.10;;;1.90;;
65636;SDS011;52327;42.622;23.316;2022-07-19T02:50:37;3.53;;;2.20;;
65636;SDS011;52327;42.622;23.316;2022-07-19T02:53:02;3.10;;;2.00;;
65636;SDS011;52327;42.622;23.316;2022-07-19T02:55:28;2.25;;;1.88;;
65636;SDS011;52327;42.622;23.316;2022-07-19T02:57:53;3.28;;;2.47;;
65636;SDS011;52327;42.622;23.316;2022-07-19T03:00:18;3.30;;;2.55;;
65636;SDS011;52327;42.622;23.316;2022-07-19T03:02:44;3.13;;;2.10;;
65636;SDS011;52327;42.622;23.316;2022-07-19T03:05:09;3.83;;;2.03;;
65636;SDS011;52327;42.622;23.316;2022-07-19T03:07:35;3.05;;;2.25;;
65636;SDS011;52327;42.622;23.316;2022-07-19T03:10:00;2.80;;;2.30;;
65636;SDS011;52327;42.622;23.316;2022-07-19T03:12:26;2.58;;;2.10;;
65636;SDS011;52327;42.622;23.316;2022-07-19T03:14:51;3.63;;;2.35;;
65636;SDS011;52327;42.622;23.316;2022-07-19T03:17:17;2.72;;;2.05;;
65636;SDS011;52327;42.622;23.316;2022-07-19T03:19:42;3.00;;;2.35;;
65636;SDS011;52327;42.622;23.316;2022-07-19T03:22:08;5.38;;;2.20;;
65636;SDS011;52327;42.622;23.316;2022-07-19T03:24:33;2.88;;;2.20;;
65636;SDS011;52327;42.622;23.316;2022-07-19T03:26:58;4.97;;;3.13;;
65636;SDS011;52327;42.622;23.316;2022-07-19T03:29:24;3.55;;;2.60;;
65636;SDS011;52327;42.622;23.316;2022-07-19T03:31:49;3.38;;;2.53;;
65636;SDS011;52327;42.622;23.316;2022-07-19T03:34:15;3.22;;;2.10;;
65636;SDS011;52327;42.622;23.316;2022-07-19T03:36:40;3.25;;;2.55;;
65636;SDS011;52327;42.622;23.316;2022-07-19T03:39:06;4.20;;;3.35;;
65636;SDS011;52327;42.622;23.316;2022-07-19T03:41:32;4.68;;;3.45;;
65636;SDS011;52327;42.622;23.316;2022-07-19T03:43:57;4.50;;;3.63;;
65636;SDS011;52327;42.622;23.316;2022-07-19T03:46:22;6.55;;;3.55;;
65636;SDS011;52327;42.622;23.316;2022-07-19T03:48:48;3.65;;;3.15;;
65636;SDS011;52327;42.622;23.316;2022-07-19T03:51:14;4.50;;;3.85;;
65636;SDS011;52327;42.622;23.316;2022-07-19T03:53:39;3.90;;;3.42;;
65636;SDS011;52327;42.622;23.316;2022-07-19T03:56:05;3.33;;;3.00;;
65636;SDS011;52327;42.622;23.316;2022-07-19T03:58:31;4.00;;;3.22;;
65636;SDS011;52327;42.622;23.316;2022-07-19T04:00:56;3.28;;;2.83;;
65636;SDS011;52327;42.622;23.316;2022-07-19T04:03:22;3.63;;;3.15;;
65636;SDS011;52327;42.622;23.316;2022-07-19T04:05:48;3.78;;;3.40;;
65636;SDS011;52327;42.622;23.316;2022-07-19T04:08:13;3.20;;;2.42;;
65636;SDS011;52327;42.622;23.316;2022-07-19T04:10:39;2.22;;;1.92;;
65636;SDS011;52327;42.622;23.316;2022-07-19T04:13:05;2.97;;;2.05;;
65636;SDS011;52327;42.622;23.316;2022-07-19T04:15:31;3.10;;;2.42;;
65636;SDS011;52327;42.622;23.316;2022-07-19T04:17:57;4.13;;;3.10;;
65636;SDS011;52327;42.622;23.316;2022-07-19T04:20:22;3.75;;;2.30;;
65636;SDS011;52327;42.622;23.316;2022-07-19T04:22:51;2.50;;;1.98;;
65636;SDS011;52327;42.622;23.316;2022-07-19T04:25:16;3.28;;;2.38;;
65636;SDS011;52327;42.622;23.316;2022-07-19T04:27:42;3.58;;;2.22;;
65636;SDS011;52327;42.622;23.316;2022-07-19T04:30:08;3.10;;;2.42;;
65636;SDS011;52327;42.622;23.316;2022-07-19T04:32:33;3.97;;;2.47;;
65636;SDS011;52327;42.622;23.316;2022-07-19T04:34:59;5.90;;;2.63;;
65636;SDS011;52327;42.622;23.316;2022-07-19T04:37:25;5.80;;;2.67;;
65636;SDS011;52327;42.622;23.316;2022-07-19T04:39:51;4.70;;;2.20;;
65636;SDS011;52327;42.622;23.316;2022-07-19T04:42:16;4.57;;;2.90;;
65636;SDS011;52327;42.622;23.316;2022-07-19T04:44:42;8.75;;;2.40;;
65636;SDS011;52327;42.622;23.316;2022-07-19T04:47:08;2.67;;;2.20;;
65636;SDS011;52327;42.622;23.316;2022-07-19T04:49:33;3.65;;;2.25;;
65636;SDS011;52327;42.622;23.316;2022-07-19T04:51:59;4.43;;;2.28;;
65636;SDS011;52327;42.622;23.316;2022-07-19T04:54:24;4.95;;;2.38;;
65636;SDS011;52327;42.622;23.316;2022-07-19T04:56:50;3.45;;;2.20;;
65636;SDS011;52327;42.622;23.316;2022-07-19T04:59:15;2.58;;;2.22;;
65636;SDS011;52327;42.622;23.316;2022-07-19T05:01:41;2.92;;;2.58;;
65636;SDS011;52327;42.622;23.316;2022-07-19T05:04:06;3.13;;;2.33;;
65636;SDS011;52327;42.622;23.316;2022-07-19T05:06:32;3.63;;;2.40;;
65636;SDS011;52327;42.622;23.316;2022-07-19T05:09:03;3.58;;;2.40;;
65636;SDS011;52327;42.622;23.316;2022-07-19T05:11:29;3.33;;;2.22;;
65636;SDS011;52327;42.622;23.316;2022-07-19T05:13:54;3.53;;;2.40;;
65636;SDS011;52327;42.622;23.316;2022-07-19T05:16:20;3.40;;;1.98;;
65636;SDS011;52327;42.622;23.316;2022-07-19T05:18:45;2.88;;;1.80;;
65636;SDS011;52327;42.622;23.316;2022-07-19T05:21:11;3.45;;;2.17;;
65636;SDS011;52327;42.622;23.316;2022-07-19T05:23:36;3.08;;;2.40;;
65636;SDS011;52327;42.622;23.316;2022-07-19T05:26:02;4.10;;;2.20;;
65636;SDS011;52327;42.622;23.316;2022-07-19T05:28:27;3.15;;;2.17;;
65636;SDS011;52327;42.622;23.316;2022-07-19T05:30:53;5.68;;;2.80;;
65636;SDS011;52327;42.622;23.316;2022-07-19T05:33:18;5.20;;;2.20;;
65636;SDS011;52327;42.622;23.316;2022-07-19T05:35:44;3.17;;;2.50;;
65636;SDS011;52327;42.622;23.316;2022-07-19T05:38:09;4.50;;;1.95;;
65636;SDS011;52327;42.622;23.316;2022-07-19T05:40:34;4.15;;;2.63;;
65636;SDS011;52327;42.622;23.316;2022-07-19T05:43:00;3.50;;;1.90;;
65636;SDS011;52327;42.622;23.316;2022-07-19T05:45:26;2.70;;;2.20;;
65636;SDS011;52327;42.622;23.316;2022-07-19T05:47:52;3.00;;;2.00;;
65636;SDS011;52327;42.622;23.316;2022-07-19T05:50:17;3.67;;;1.75;;
65636;SDS011;52327;42.622;23.316;2022-07-19T05:52:43;3.28;;;2.25;;
65636;SDS011;52327;42.622;23.316;2022-07-19T05:55:08;3.65;;;2.15;;
65636;SDS011;52327;42.622;23.316;2022-07-19T05:57:34;6.78;;;2.45;;
65636;SDS011;52327;42.622;23.316;2022-07-19T05:59:59;3.00;;;2.20;;
65636;SDS011;52327;42.622;23.316;2022-07-19T06:02:25;3.22;;;1.98;;
65636;SDS011;52327;42.622;23.316;2022-07-19T06:04:50;4.40;;;2.40;;
65636;SDS011;52327;42.622;23.316;2022-07-19T06:07:16;7.13;;;2.40;;
65636;SDS011;52327;42.622;23.316;2022-07-19T06:09:41;3.80;;;2.30;;
65636;SDS011;52327;42.622;23.316;2022-07-19T06:12:06;3.03;;;2.30;;
65636;SDS011;52327;42.622;23.316;2022-07-19T06:14:32;4.97;;;3.10;;
65636;SDS011;52327;42.622;23.316;2022-07-19T06:16:57;4.95;;;2.20;;
65636;SDS011;52327;42.622;23.316;2022-07-19T06:19:24;2.97;;;2.00;;
65636;SDS011;52327;42.622;23.316;2022-07-19T06:21:50;3.00;;;2.00;;
65636;SDS011;52327;42.622;23.316;2022-07-19T06:24:22;3.47;;;2.22;;
65636;SDS011;52327;42.622;23.316;2022-07-19T06:26:47;3.30;;;2.20;;
65636;SDS011;52327;42.622;23.316;2022-07-19T06:29:13;3.85;;;1.90;;
65636;SDS011;52327;42.622;23.316;2022-07-19T06:31:38;5.80;;;2.10;;
65636;SDS011;52327;42.622;23.316;2022-07-19T06:34:04;3.65;;;2.55;;
65636;SDS011;52327;42.622;23.316;2022-07-19T06:36:29;2.70;;;2.10;;
65636;SDS011;52327;42.622;23.316;2022-07-19T06:38:55;4.07;;;2.63;;
65636;SDS011;52327;42.622;23.316;2022-07-19T06:41:20;8.82;;;2.20;;
65636;SDS011;52327;42.622;23.316;2022-07-19T06:43:45;2.95;;;2.00;;
65636;SDS011;52327;42.622;23.316;2022-07-19T06:46:11;3.65;;;2.15;;
65636;SDS011;52327;42.622;23.316;2022-07-19T06:48:36;3.47;;;2.25;;
65636;SDS011;52327;42.622;23.316;2022-07-19T06:51:02;6.40;;;2.45;;
65636;SDS011;52327;42.622;23.316;2022-07-19T06:53:29;7.00;;;2.00;;
65636;SDS011;52327;42.622;23.316;2022-07-19T06:55:55;3.45;;;2.25;;
65636;SDS011;52327;42.622;23.316;2022-07-19T06:58:20;10.93;;;2.35;;
65636;SDS011;52327;42.622;23.316;2022-07-19T07:00:46;4.15;;;2.17;;
65636;SDS011;52327;42.622;23.316;2022-07-19T07:03:14;3.90;;;2.50;;
65636;SDS011;52327;42.622;23.316;2022-07-19T07:05:40;4.40;;;2.33;;
65636;SDS011;52327;42.622;23.316;2022-07-19T07:08:06;6.15;;;2.10;;
65636;SDS011;52327;42.622;23.316;2022-07-19T07:10:31;2.88;;;1.80;;
65636;SDS011;52327;42.622;23.316;2022-07-19T07:12:57;2.20;;;1.83;;
65636;SDS011;52327;42.622;23.316;2022-07-19T07:15:22;9.20;;;2.40;;
65636;SDS011;52327;42.622;23.316;2022-07-19T07:17:47;3.38;;;2.15;;
65636;SDS011;52327;42.622;23.316;2022-07-19T07:20:13;2.20;;;1.75;;
65636;SDS011;52327;42.622;23.316;2022-07-19T07:22:38;4.10;;;1.80;;
65636;SDS011;52327;42.622;23.316;2022-07-19T07:25:04;4.22;;;1.90;;
65636;SDS011;52327;42.622;23.316;2022-07-19T07:27:30;2.38;;;1.60;;
65636;SDS011;52327;42.622;23.316;2022-07-19T07:29:56;2.97;;;1.83;;
65636;SDS011;52327;42.622;23.316;2022-07-19T07:32:21;1.73;;;1.50;;
65636;SDS011;52327;42.622;23.316;2022-07-19T07:34:47;3.15;;;1.65;;
65636;SDS011;52327;42.622;23.316;2022-07-19T07:37:13;8.68;;;2.00;;
65636;SDS011;52327;42.622;23.316;2022-07-19T07:39:38;4.47;;;1.90;;
65636;SDS011;52327;42.622;23.316;2022-07-19T07:42:04;4.45;;;1.80;;
65636;SDS011;52327;42.622;23.316;2022-07-19T07:44:30;2.25;;;1.50;;
65636;SDS011;52327;42.622;23.316;2022-07-19T07:46:56;4.68;;;1.75;;
65636;SDS011;52327;42.622;23.316;2022-07-19T07:49:21;3.20;;;1.55;;
65636;SDS011;52327;42.622;23.316;2022-07-19T07:51:47;1.90;;;1.42;;
65636;SDS011;52327;42.622;23.316;2022-07-19T07:54:12;2.75;;;1.95;;
65636;SDS011;52327;42.622;23.316;2022-07-19T07:56:38;3.28;;;2.08;;
65636;SDS011;52327;42.622;23.316;2022-07-19T07:59:04;3.50;;;2.15;;
65636;SDS011;52327;42.622;23.316;2022-07-19T08:01:29;4.78;;;1.88;;
65636;SDS011;52327;42.622;23.316;2022-07-19T08:03:55;4.57;;;2.10;;
65636;SDS011;52327;42.622;23.316;2022-07-19T08:06:21;2.50;;;1.60;;
65636;SDS011;52327;42.622;23.316;2022-07-19T08:08:47;2.85;;;1.58;;
65636;SDS011;52327;42.622;23.316;2022-07-19T08:11:12;12.18;;;1.92;;
65636;SDS011;52327;42.622;23.316;2022-07-19T08:13:38;2.17;;;1.50;;
65636;SDS011;52327;42.622;23.316;2022-07-19T08:16:03;4.60;;;1.70;;
65636;SDS011;52327;42.622;23.316;2022-07-19T08:18:29;3.20;;;2.00;;
65636;SDS011;52327;42.622;23.316;2022-07-19T08:20:55;3.05;;;1.60;;
65636;SDS011;52327;42.622;23.316;2022-07-19T08:23:20;3.53;;;1.70;;
65636;SDS011;52327;42.622;23.316;2022-07-19T08:25:45;1.95;;;1.58;;
65636;SDS011;52327;42.622;23.316;2022-07-19T08:28:11;3.38;;;1.65;;
65636;SDS011;52327;42.622;23.316;2022-07-19T08:30:36;1.85;;;1.63;;
65636;SDS011;52327;42.622;23.316;2022-07-19T08:33:02;2.60;;;1.70;;
65636;SDS011;52327;42.622;23.316;2022-07-19T08:37:57;2.65;;;1.42;;
65636;SDS011;52327;42.622;23.316;2022-07-19T08:40:22;4.80;;;1.67;;
65636;SDS011;52327;42.622;23.316;2022-07-19T08:42:48;5.25;;;1.63;;
65636;SDS011;52327;42.622;23.316;2022-07-19T08:45:15;3.38;;;1.80;;
65636;SDS011;52327;42.622;23.316;2022-07-19T08:47:40;3.38;;;1.60;;
65636;SDS011;52327;42.622;23.316;2022-07-19T08:50:07;3.05;;;1.73;;
65636;SDS011;52327;42.622;23.316;2022-07-19T08:52:34;3.88;;;1.75;;
65636;SDS011;52327;42.622;23.316;2022-07-19T08:55:00;2.28;;;1.70;;
65636;SDS011;52327;42.622;23.316;2022-07-19T08:57:26;5.05;;;2.58;;
65636;SDS011;52327;42.622;23.316;2022-07-19T09:00:10;3.65;;;2.05;;
65636;SDS011;52327;42.622;23.316;2022-07-19T09:02:37;3.58;;;1.80;;
65636;SDS011;52327;42.622;23.316;2022-07-19T09:05:04;1.73;;;1.40;;
65636;SDS011;52327;42.622;23.316;2022-07-19T09:07:35;3.40;;;1.63;;
65636;SDS011;52327;42.622;23.316;2022-07-19T09:10:17;2.35;;;1.90;;
65636;SDS011;52327;42.622;23.316;2022-07-19T09:12:58;2.78;;;1.75;;
65636;SDS011;52327;42.622;23.316;2022-07-19T09:15:40;4.00;;;1.92;;
65636;SDS011;52327;42.622;23.316;2022-07-19T09:18:08;4.50;;;1.75;;
65636;SDS011;52327;42.622;23.316;2022-07-19T09:20:43;2.83;;;1.52;;
65636;SDS011;52327;42.622;23.316;2022-07-19T09:23:10;1.98;;;1.40;;
65636;SDS011;52327;42.622;23.316;2022-07-19T09:25:37;4.93;;;1.60;;
65636;SDS011;52327;42.622;23.316;2022-07-19T09:28:06;3.35;;;1.50;;
65636;SDS011;52327;42.622;23.316;2022-07-19T09:30:37;3.35;;;1.60;;
65636;SDS011;52327;42.622;23.316;2022-07-19T09:33:08;3.03;;;1.95;;
65636;SDS011;52327;42.622;23.316;2022-07-19T09:35:45;4.32;;;1.50;;
65636;SDS011;52327;42.622;23.316;2022-07-19T09:38:31;1.90;;;1.50;;
65636;SDS011;52327;42.622;23.316;2022-07-19T09:43:51;1.92;;;1.60;;
65636;SDS011;52327;42.622;23.316;2022-07-19T09:49:16;2.30;;;1.70;;
65636;SDS011;52327;42.622;23.316;2022-07-19T09:51:50;2.42;;;1.50;;
65636;SDS011;52327;42.622;23.316;2022-07-19T09:54:17;2.20;;;1.45;;
65636;SDS011;52327;42.622;23.316;2022-07-19T09:56:45;3.85;;;1.60;;
65636;SDS011;52327;42.622;23.316;2022-07-19T09:59:13;3.80;;;1.73;;
65636;SDS011;52327;42.622;23.316;2022-07-19T10:01:39;4.57;;;1.58;;
65636;SDS011;52327;42.622;23.316;2022-07-19T10:04:07;2.13;;;1.50;;
65636;SDS011;52327;42.622;23.316;2022-07-19T10:06:35;3.70;;;1.58;;
65636;SDS011;52327;42.622;23.316;2022-07-19T10:09:02;2.75;;;1.50;;
65636;SDS011;52327;42.622;23.316;2022-07-19T10:13:57;2.50;;;1.80;;
65636;SDS011;52327;42.622;23.316;2022-07-19T10:16:39;3.10;;;1.50;;
65636;SDS011;52327;42.622;23.316;2022-07-19T10:19:38;3.25;;;1.48;;
65636;SDS011;52327;42.622;23.316;2022-07-19T10:22:06;6.43;;;2.15;;
65636;SDS011;52327;42.622;23.316;2022-07-19T10:27:41;2.15;;;1.60;;
65636;SDS011;52327;42.622;23.316;2022-07-19T10:35:23;2.75;;;1.45;;
65636;SDS011;52327;42.622;23.316;2022-07-19T10:37:53;4.70;;;1.63;;
65636;SDS011;52327;42.622;23.316;2022-07-19T10:43:09;1.73;;;1.35;;
65636;SDS011;52327;42.622;23.316;2022-07-19T10:45:37;4.85;;;1.88;;
65636;SDS011;52327;42.622;23.316;2022-07-19T10:48:05;1.90;;;1.50;;
65636;SDS011;52327;42.622;23.316;2022-07-19T10:50:49;2.28;;;1.40;;
65636;SDS011;52327;42.622;23.316;2022-07-19T10:56:19;1.80;;;1.40;;
65636;SDS011;52327;42.622;23.316;2022-07-19T10:58:49;2.38;;;1.70;;
65636;SDS011;52327;42.622;23.316;2022-07-19T11:01:23;2.67;;;1.42;;
65636;SDS011;52327;42.622;23.316;2022-07-19T11:03:50;3.83;;;1.60;;
65636;SDS011;52327;42.622;23.316;2022-07-19T11:06:32;2.25;;;1.35;;
65636;SDS011;52327;42.622;23.316;2022-07-19T11:08:58;1.98;;;1.48;;
65636;SDS011;52327;42.622;23.316;2022-07-19T11:11:24;2.60;;;1.70;;
65636;SDS011;52327;42.622;23.316;2022-07-19T11:13:52;2.97;;;1.50;;
65636;SDS011;52327;42.622;23.316;2022-07-19T11:16:19;4.15;;;1.80;;
65636;SDS011;52327;42.622;23.316;2022-07-19T11:18:45;3.72;;;1.85;;
65636;SDS011;52327;42.622;23.316;2022-07-19T11:21:11;3.97;;;1.65;;
65636;SDS011;52327;42.622;23.316;2022-07-19T11:23:38;4.07;;;1.63;;
65636;SDS011;52327;42.622;23.316;2022-07-19T11:28:34;7.03;;;1.90;;
65636;SDS011;52327;42.622;23.316;2022-07-19T11:31:00;1.98;;;1.60;;
65636;SDS011;52327;42.622;23.316;2022-07-19T11:33:38;2.00;;;1.70;;
65636;SDS011;52327;42.622;23.316;2022-07-19T11:36:03;2.83;;;1.80;;
65636;SDS011;52327;42.622;23.316;2022-07-19T11:38:43;3.40;;;1.60;;
65636;SDS011;52327;42.622;23.316;2022-07-19T11:41:13;1.90;;;1.50;;
65636;SDS011;52327;42.622;23.316;2022-07-19T11:44:03;2.38;;;1.63;;
65636;SDS011;52327;42.622;23.316;2022-07-19T11:46:31;3.83;;;1.58;;
65636;SDS011;52327;42.622;23.316;2022-07-19T11:49:00;2.85;;;1.75;;
65636;SDS011;52327;42.622;23.316;2022-07-19T11:51:30;1.50;;;1.40;;
65636;SDS011;52327;42.622;23.316;2022-07-19T11:53:57;2.40;;;1.70;;
65636;SDS011;52327;42.622;23.316;2022-07-19T11:58:50;2.33;;;1.52;;
65636;SDS011;52327;42.622;23.316;2022-07-19T12:01:31;2.90;;;1.65;;
65636;SDS011;52327;42.622;23.316;2022-07-19T12:03:59;4.70;;;1.80;;
65636;SDS011;52327;42.622;23.316;2022-07-19T12:06:42;4.53;;;1.50;;
65636;SDS011;52327;42.622;23.316;2022-07-19T12:09:12;3.83;;;1.90;;
65636;SDS011;52327;42.622;23.316;2022-07-19T12:11:42;2.00;;;1.80;;
65636;SDS011;52327;42.622;23.316;2022-07-19T12:14:24;4.85;;;1.80;;
65636;SDS011;52327;42.622;23.316;2022-07-19T12:19:42;3.45;;;1.50;;
65636;SDS011;52327;42.622;23.316;2022-07-19T12:25:01;3.13;;;1.50;;
65636;SDS011;52327;42.622;23.316;2022-07-19T12:27:26;3.75;;;1.75;;
65636;SDS011;52327;42.622;23.316;2022-07-19T12:29:53;1.88;;;1.40;;
65636;SDS011;52327;42.622;23.316;2022-07-19T12:32:30;2.17;;;1.50;;
65636;SDS011;52327;42.622;23.316;2022-07-19T12:34:58;2.60;;;1.63;;
65636;SDS011;52327;42.622;23.316;2022-07-19T12:37:29;4.22;;;1.70;;
65636;SDS011;52327;42.622;23.316;2022-07-19T12:42:38;10.63;;;2.05;;
65636;SDS011;52327;42.622;23.316;2022-07-19T12:45:20;5.65;;;1.50;;
65636;SDS011;52327;42.622;23.316;2022-07-19T12:47:47;2.30;;;1.80;;
65636;SDS011;52327;42.622;23.316;2022-07-19T12:50:28;4.45;;;1.35;;
65636;SDS011;52327;42.622;23.316;2022-07-19T12:52:56;1.77;;;1.40;;
65636;SDS011;52327;42.622;23.316;2022-07-19T12:55:23;2.88;;;1.40;;
65636;SDS011;52327;42.622;23.316;2022-07-19T12:57:50;3.03;;;1.48;;
65636;SDS011;52327;42.622;23.316;2022-07-19T13:00:18;1.75;;;1.50;;
65636;SDS011;52327;42.622;23.316;2022-07-19T13:02:45;2.63;;;1.50;;
65636;SDS011;52327;42.622;23.316;2022-07-19T13:05:12;2.38;;;1.80;;
65636;SDS011;52327;42.622;23.316;2022-07-19T13:07:38;2.78;;;1.27;;
65636;SDS011;52327;42.622;23.316;2022-07-19T13:10:03;3.63;;;2.00;;
65636;SDS011;52327;42.622;23.316;2022-07-19T13:12:29;5.10;;;2.50;;
65636;SDS011;52327;42.622;23.316;2022-07-19T13:14:55;2.90;;;1.63;;
65636;SDS011;52327;42.622;23.316;2022-07-19T13:17:20;2.40;;;1.60;;
65636;SDS011;52327;42.622;23.316;2022-07-19T13:19:46;3.97;;;1.50;;
65636;SDS011;52327;42.622;23.316;2022-07-19T13:22:11;3.03;;;1.60;;
65636;SDS011;52327;42.622;23.316;2022-07-19T13:24:38;5.18;;;1.35;;
65636;SDS011;52327;42.622;23.316;2022-07-19T13:27:03;3.78;;;1.33;;
65636;SDS011;52327;42.622;23.316;2022-07-19T13:29:30;4.15;;;1.40;;
65636;SDS011;52327;42.622;23.316;2022-07-19T13:31:56;1.42;;;1.20;;
65636;SDS011;52327;42.622;23.316;2022-07-19T13:34:23;2.65;;;1.48;;
65636;SDS011;52327;42.622;23.316;2022-07-19T13:36:49;2.13;;;1.35;;
65636;SDS011;52327;42.622;23.316;2022-07-19T13:39:14;3.80;;;1.42;;
65636;SDS011;52327;42.622;23.316;2022-07-19T13:41:40;2.55;;;1.30;;
65636;SDS011;52327;42.622;23.316;2022-07-19T13:44:06;2.83;;;1.60;;
65636;SDS011;52327;42.622;23.316;2022-07-19T13:46:32;1.77;;;1.35;;
65636;SDS011;52327;42.622;23.316;2022-07-19T13:48:58;3.17;;;1.55;;
65636;SDS011;52327;42.622;23.316;2022-07-19T13:51:23;2.97;;;1.60;;
65636;SDS011;52327;42.622;23.316;2022-07-19T13:53:49;1.55;;;1.30;;
65636;SDS011;52327;42.622;23.316;2022-07-19T13:56:15;1.45;;;1.20;;
65636;SDS011;52327;42.622;23.316;2022-07-19T13:58:40;3.40;;;1.27;;
65636;SDS011;52327;42.622;23.316;2022-07-19T14:01:06;3.63;;;1.80;;
65636;SDS011;52327;42.622;23.316;2022-07-19T14:03:38;3.13;;;1.40;;
65636;SDS011;52327;42.622;23.316;2022-07-19T14:06:04;2.60;;;1.30;;
65636;SDS011;52327;42.622;23.316;2022-07-19T14:08:29;1.50;;;1.23;;
65636;SDS011;52327;42.622;23.316;2022-07-19T14:10:55;2.15;;;1.40;;
65636;SDS011;52327;42.622;23.316;2022-07-19T14:13:20;2.08;;;1.33;;
65636;SDS011;52327;42.622;23.316;2022-07-19T14:15:46;1.42;;;1.15;;
65636;SDS011;52327;42.622;23.316;2022-07-19T14:18:11;2.80;;;1.58;;
65636;SDS011;52327;42.622;23.316;2022-07-19T14:20:40;2.33;;;1.20;;
65636;SDS011;52327;42.622;23.316;2022-07-19T14:23:08;2.17;;;1.45;;
65636;SDS011;52327;42.622;23.316;2022-07-19T14:25:35;2.05;;;1.40;;
65636;SDS011;52327;42.622;23.316;2022-07-19T14:28:00;4.65;;;1.48;;
65636;SDS011;52327;42.622;23.316;2022-07-19T14:30:26;5.85;;;1.45;;
65636;SDS011;52327;42.622;23.316;2022-07-19T14:32:51;1.65;;;1.27;;
65636;SDS011;52327;42.622;23.316;2022-07-19T14:35:17;1.25;;;1.00;;
65636;SDS011;52327;42.622;23.316;2022-07-19T14:37:44;4.35;;;1.60;;
65636;SDS011;52327;42.622;23.316;2022-07-19T14:40:10;3.22;;;1.20;;
65636;SDS011;52327;42.622;23.316;2022-07-19T14:42:36;2.05;;;1.33;;
65636;SDS011;52327;42.622;23.316;2022-07-19T14:45:03;4.63;;;1.60;;
65636;SDS011;52327;42.622;23.316;2022-07-19T14:47:29;6.43;;;1.60;;
65636;SDS011;52327;42.622;23.316;2022-07-19T14:49:54;2.08;;;1.15;;
65636;SDS011;52327;42.622;23.316;2022-07-19T14:52:20;1.88;;;1.38;;
65636;SDS011;52327;42.622;23.316;2022-07-19T14:54:45;3.42;;;1.30;;
65636;SDS011;52327;42.622;23.316;2022-07-19T14:57:11;2.53;;;1.27;;
65636;SDS011;52327;42.622;23.316;2022-07-19T14:59:36;1.60;;;1.20;;
65636;SDS011;52327;42.622;23.316;2022-07-19T15:02:01;3.58;;;1.20;;
65636;SDS011;52327;42.622;23.316;2022-07-19T15:04:27;1.40;;;1.10;;
65636;SDS011;52327;42.622;23.316;2022-07-19T15:06:52;1.13;;;1.00;;
65636;SDS011;52327;42.622;23.316;2022-07-19T15:09:18;1.65;;;1.30;;